Time;durP1;ratioP1;P1;durP2;ratioP2;P2;SDS_P1;SDS_P2;PMS_P1;PMS_P2;Temp;Humidity;BMP_temperature;BMP_pressure;BME280_temperature;BME280_humidity;BME280_pressure;Samples;Min_cycle;Max_cycle;Signal;HPM_P1;HPM_P2
2022/04/05 00:00:27;;;;;;;1.73;1.53;;;4.60;99.90;;;;;;5121934;28;20192;-56
2022/04/05 00:03:11;;;;;;;1.33;0.97;;;4.70;99.90;;;;;;5122813;28;20230;-48
2022/04/05 00:05:55;;;;;;;2.50;1.20;;;4.70;99.90;;;;;;5123887;28;20234;-52
2022/04/05 00:08:40;;;;;;;1.00;1.00;;;4.80;99.90;;;;;;5121828;28;20276;-57
2022/04/05 00:11:24;;;;;;;1.27;1.27;;;4.80;99.90;;;;;;5125119;27;20190;-50
2022/04/05 00:14:09;;;;;;;1.30;1.20;;;4.80;99.90;;;;;;5128381;27;20203;-57
2022/04/05 00:16:53;;;;;;;1.00;0.97;;;4.80;99.90;;;;;;5124926;27;20187;-50
2022/04/05 00:19:38;;;;;;;1.40;1.30;;;4.80;99.90;;;;;;5126899;27;20207;-51
2022/04/05 00:22:22;;;;;;;1.60;1.50;;;4.80;99.90;;;;;;5126784;27;20221;-53
2022/04/05 00:25:07;;;;;;;1.90;1.33;;;4.80;99.90;;;;;;5126163;27;20195;-57
2022/04/05 00:27:52;;;;;;;1.77;1.67;;;4.80;99.90;;;;;;5127360;27;20199;-52
2022/04/05 00:30:37;;;;;;;0.93;0.93;;;4.80;99.90;;;;;;5126753;27;20700;-57
2022/04/05 00:33:21;;;;;;;1.77;1.67;;;4.90;99.90;;;;;;5127231;27;20187;-59
2022/04/05 00:36:05;;;;;;;1.43;1.33;;;4.90;99.90;;;;;;5127222;27;20191;-58
2022/04/05 00:38:51;;;;;;;1.57;1.40;;;4.90;99.90;;;;;;5125026;27;20223;-55
2022/04/05 00:41:36;;;;;;;1.47;1.43;;;4.90;99.90;;;;;;5127641;27;20321;-56
2022/04/05 00:44:22;;;;;;;1.13;0.97;;;4.90;99.90;;;;;;5127200;27;20195;-59
2022/04/05 00:47:17;;;;;;;1.03;0.90;;;4.90;99.90;;;;;;5124742;27;20241;-59
2022/04/05 00:50:05;;;;;;;1.60;1.50;;;4.90;99.90;;;;;;5127042;27;20220;-58
2022/04/05 00:52:51;;;;;;;1.20;1.10;;;4.90;99.90;;;;;;5126879;27;20197;-57
2022/04/05 00:55:38;;;;;;;1.87;1.77;;;4.90;99.90;;;;;;5124758;27;20329;-50
2022/04/05 00:58:24;;;;;;;1.27;1.23;;;4.90;99.90;;;;;;5126502;27;20242;-50
2022/04/05 01:01:15;;;;;;;1.10;1.10;;;4.90;99.90;;;;;;5126177;27;20206;-52
2022/04/05 01:04:01;;;;;;;2.40;2.20;;;4.90;99.90;;;;;;5124686;27;20206;-53
2022/04/05 01:06:47;;;;;;;1.57;1.20;;;4.90;99.90;;;;;;5126967;27;20606;-48
2022/04/05 01:09:32;;;;;;;1.33;1.23;;;4.90;99.90;;;;;;5125451;27;20213;-50
2022/04/05 01:12:16;;;;;;;3.30;1.77;;;4.90;99.90;;;;;;5125432;27;20191;-55
2022/04/05 01:15:01;;;;;;;1.27;1.27;;;4.90;99.90;;;;;;5126640;27;20254;-49
2022/04/05 01:17:45;;;;;;;1.20;1.10;;;4.90;99.90;;;;;;5124206;27;20239;-57
2022/04/05 01:20:29;;;;;;;2.03;1.57;;;4.90;99.90;;;;;;5126207;27;20268;-52
2022/04/05 01:23:20;;;;;;;1.47;1.37;;;4.90;99.90;;;;;;5124760;27;20282;-53
2022/04/05 01:26:04;;;;;;;1.17;1.17;;;4.90;99.90;;;;;;5124748;27;20208;-60
2022/04/05 01:28:49;;;;;;;1.67;1.40;;;4.90;99.90;;;;;;5126390;27;20245;-56
2022/04/05 01:35:15;;;;;;;1.47;1.30;;;4.80;99.90;;;;;;5125836;27;20251;-53
2022/04/05 01:38:01;;;;;;;1.60;1.00;;;4.80;99.90;;;;;;5125468;27;20231;-54
2022/04/05 01:40:47;;;;;;;1.17;1.07;;;4.80;99.90;;;;;;5125386;27;20243;-50
2022/04/05 01:43:32;;;;;;;1.43;1.33;;;4.80;99.90;;;;;;5124794;27;20219;-56
2022/04/05 01:46:16;;;;;;;1.40;1.07;;;4.80;99.90;;;;;;5126197;27;20195;-52
2022/04/05 01:49:05;;;;;;;1.97;1.50;;;4.80;99.90;;;;;;5125656;27;20249;-57
2022/04/05 01:51:51;;;;;;;1.57;1.50;;;4.80;99.90;;;;;;5123473;27;20207;-49
2022/04/05 01:54:37;;;;;;;1.70;1.60;;;4.80;99.90;;;;;;5125660;27;20202;-56
2022/04/05 01:57:21;;;;;;;1.93;1.83;;;4.80;99.90;;;;;;5125089;27;20218;-50
2022/04/05 02:00:14;;;;;;;1.37;1.27;;;4.80;99.90;;;;;;5124036;27;20196;-53
2022/04/05 02:02:58;;;;;;;3.10;1.60;;;4.90;99.90;;;;;;5125626;27;20276;-50
2022/04/05 02:05:44;;;;;;;2.13;1.83;;;4.90;99.90;;;;;;5124381;27;20242;-51
2022/04/05 02:08:28;;;;;;;1.97;1.37;;;4.90;99.90;;;;;;5125008;27;20284;-54
2022/04/05 02:11:13;;;;;;;1.40;1.30;;;4.90;99.90;;;;;;5125250;27;20231;-51
2022/04/05 02:13:57;;;;;;;1.80;1.70;;;4.90;99.90;;;;;;5123948;27;20199;-59
2022/04/05 02:16:42;;;;;;;1.47;1.37;;;4.90;99.90;;;;;;5125272;27;20199;-57
2022/04/05 02:19:26;;;;;;;1.40;1.30;;;4.90;99.90;;;;;;5124730;27;20195;-50
2022/04/05 02:22:11;;;;;;;1.50;1.40;;;4.90;99.90;;;;;;5123231;27;20198;-56
2022/04/05 02:24:56;;;;;;;1.43;1.33;;;5.00;99.90;;;;;;5124928;27;20195;-56
2022/04/05 02:27:42;;;;;;;1.83;1.73;;;5.00;99.90;;;;;;5124446;27;20191;-56
2022/04/05 02:30:27;;;;;;;1.40;1.30;;;4.90;99.90;;;;;;5123289;27;20230;-51
2022/04/05 02:33:12;;;;;;;2.00;1.73;;;5.00;99.90;;;;;;5124854;27;20221;-49
2022/04/05 02:35:58;;;;;;;1.70;1.60;;;5.00;99.90;;;;;;5122319;27;20234;-51
2022/04/05 02:38:43;;;;;;;1.20;1.20;;;5.00;99.90;;;;;;5124050;27;20264;-52
2022/04/05 02:41:27;;;;;;;1.57;1.47;;;5.00;99.90;;;;;;5124866;27;20243;-52
2022/04/05 02:44:12;;;;;;;1.07;1.07;;;5.00;99.90;;;;;;5123602;27;20199;-56
2022/04/05 02:46:57;;;;;;;1.93;1.80;;;5.00;99.90;;;;;;5124226;27;20279;-52
2022/04/05 02:49:43;;;;;;;1.40;1.40;;;4.90;99.90;;;;;;5124265;27;20196;-54
2022/04/05 02:52:29;;;;;;;1.50;1.40;;;5.00;99.90;;;;;;5122949;27;20203;-57
2022/04/05 02:55:13;;;;;;;3.70;1.70;;;5.00;99.90;;;;;;5124465;27;20223;-55
2022/04/05 02:57:58;;;;;;;1.43;1.33;;;5.00;99.90;;;;;;5124181;27;20222;-52
2022/04/05 03:00:42;;;;;;;2.03;1.57;;;4.90;99.90;;;;;;5123572;27;20334;-51
2022/04/05 03:03:26;;;;;;;1.13;1.03;;;4.90;99.90;;;;;;5124055;27;20195;-53
2022/04/05 03:06:14;;;;;;;1.60;1.50;;;4.80;99.90;;;;;;5123206;27;20211;-56
2022/04/05 03:09:00;;;;;;;1.40;1.30;;;4.80;99.90;;;;;;5123046;27;20485;-54
2022/04/05 03:11:45;;;;;;;3.23;1.43;;;4.80;99.90;;;;;;5124372;27;20187;-49
2022/04/05 03:14:29;;;;;;;3.83;2.27;;;4.80;99.90;;;;;;5124254;27;20261;-55
2022/04/05 03:17:13;;;;;;;2.20;1.50;;;4.80;99.90;;;;;;5124548;27;20219;-53
2022/04/05 03:20:04;;;;;;;1.97;1.60;;;4.70;99.90;;;;;;5124774;27;20196;-58
2022/04/05 03:22:49;;;;;;;1.40;1.30;;;4.70;99.90;;;;;;5123142;27;20203;-55
2022/04/05 03:25:34;;;;;;;2.27;1.30;;;4.60;99.90;;;;;;5124511;27;20242;-59
2022/04/05 03:28:20;;;;;;;1.57;1.47;;;4.60;99.90;;;;;;5124452;27;20183;-58
2022/04/05 03:31:06;;;;;;;2.23;1.37;;;4.50;99.90;;;;;;5123124;27;20248;-51
2022/04/05 03:33:50;;;;;;;1.67;1.57;;;4.50;99.90;;;;;;5123925;27;20205;-56
2022/04/05 03:36:35;;;;;;;3.47;2.17;;;4.50;99.90;;;;;;5123011;27;20188;-61
2022/04/05 03:39:19;;;;;;;4.30;2.47;;;4.50;99.90;;;;;;5122972;27;20214;-55
2022/04/05 03:42:04;;;;;;;1.93;1.83;;;4.50;99.90;;;;;;5123938;27;20259;-58
2022/04/05 03:44:48;;;;;;;1.63;1.43;;;4.40;99.90;;;;;;5122290;27;20191;-59
2022/04/05 03:47:33;;;;;;;1.70;1.60;;;4.40;99.90;;;;;;5123109;27;20199;-59
2022/04/05 03:50:18;;;;;;;1.40;1.30;;;4.40;99.90;;;;;;5124061;27;20261;-54
2022/04/05 03:53:02;;;;;;;1.50;1.40;;;4.40;99.90;;;;;;5121677;28;20288;-57
2022/04/05 03:55:46;;;;;;;1.77;1.67;;;4.40;99.90;;;;;;5124155;28;20227;-59
2022/04/05 03:58:31;;;;;;;1.30;1.30;;;4.40;99.90;;;;;;5123228;28;20219;-58
2022/04/05 04:01:16;;;;;;;1.80;1.70;;;4.40;99.90;;;;;;5122029;28;20191;-55
2022/04/05 04:04:00;;;;;;;1.17;1.07;;;4.40;99.90;;;;;;5123435;28;20222;-51
2022/04/05 04:06:45;;;;;;;2.40;2.13;;;4.40;99.90;;;;;;5122680;28;20226;-58
2022/04/05 04:09:30;;;;;;;3.60;2.60;;;4.40;99.90;;;;;;5122124;28;20187;-55
2022/04/05 04:12:14;;;;;;;1.50;1.40;;;4.30;99.90;;;;;;5123057;28;20205;-57
2022/04/05 04:14:59;;;;;;;1.83;1.73;;;4.30;99.90;;;;;;5121944;28;20218;-56
2022/04/05 04:17:43;;;;;;;2.07;1.43;;;4.20;99.90;;;;;;5122681;28;20230;-55
2022/04/05 04:20:27;;;;;;;1.63;1.53;;;4.20;99.90;;;;;;5123152;28;20192;-54
2022/04/05 04:23:11;;;;;;;3.07;1.80;;;4.20;99.90;;;;;;5121601;28;20195;-58
2022/04/05 04:25:56;;;;;;;1.40;1.30;;;4.20;99.90;;;;;;5123078;28;20203;-57
2022/04/05 04:28:41;;;;;;;1.53;1.43;;;4.20;99.90;;;;;;5122891;28;20740;-58
2022/04/05 04:31:25;;;;;;;2.23;1.10;;;4.20;99.90;;;;;;5121407;28;20238;-56
2022/04/05 04:34:10;;;;;;;1.60;1.50;;;4.20;99.90;;;;;;5123039;28;20296;-50
2022/04/05 04:36:56;;;;;;;2.67;2.00;;;4.20;99.90;;;;;;5122259;28;20262;-59
2022/04/05 04:39:42;;;;;;;2.20;2.00;;;4.10;99.90;;;;;;5122256;28;20198;-54
2022/04/05 04:42:27;;;;;;;2.47;2.27;;;4.20;99.90;;;;;;5123140;28;20315;-57
2022/04/05 04:45:12;;;;;;;1.53;1.53;;;4.10;99.90;;;;;;5122174;28;20274;-50
2022/04/05 04:47:58;;;;;;;1.93;1.83;;;4.00;99.90;;;;;;5123032;28;20200;-55
2022/04/05 04:50:42;;;;;;;1.60;1.50;;;4.00;99.90;;;;;;5122613;28;20192;-51
2022/04/05 04:53:27;;;;;;;1.77;1.57;;;4.00;99.90;;;;;;5121455;28;20200;-51
2022/04/05 04:56:12;;;;;;;2.47;2.27;;;3.90;99.90;;;;;;5122832;28;20327;-54
2022/04/05 04:58:57;;;;;;;1.63;1.53;;;4.00;99.90;;;;;;5124927;27;20226;-54
2022/04/05 05:01:41;;;;;;;2.17;1.93;;;3.90;99.90;;;;;;5123889;27;20227;-53
2022/04/05 05:04:25;;;;;;;1.87;1.77;;;4.00;99.90;;;;;;5135129;27;20187;-56
2022/04/05 05:07:10;;;;;;;3.53;2.13;;;4.00;99.90;;;;;;5123408;27;20277;-53
2022/04/05 05:09:55;;;;;;;2.37;1.80;;;4.00;99.90;;;;;;5120405;27;20179;-49
2022/04/05 05:12:40;;;;;;;1.93;1.83;;;3.90;99.90;;;;;;5124482;27;20200;-52
2022/04/05 05:15:25;;;;;;;2.63;1.83;;;3.90;99.90;;;;;;5123984;27;20610;-55
2022/04/05 05:18:09;;;;;;;3.20;1.40;;;3.90;99.90;;;;;;5122708;27;20228;-58
2022/04/05 05:20:53;;;;;;;2.40;2.10;;;3.90;99.90;;;;;;5123642;27;20191;-57
2022/04/05 05:23:38;;;;;;;2.17;1.53;;;3.80;99.90;;;;;;5122667;27;20200;-58
2022/04/05 05:26:22;;;;;;;2.77;2.57;;;3.80;99.90;;;;;;5124369;27;20191;-57
2022/04/05 05:29:07;;;;;;;2.60;2.40;;;3.80;99.90;;;;;;5126733;27;20203;-58
2022/04/05 05:31:51;;;;;;;1.70;1.60;;;3.70;99.90;;;;;;5126766;27;20244;-55
2022/04/05 05:34:36;;;;;;;1.17;1.13;;;3.70;99.90;;;;;;5137633;27;20199;-58
2022/04/05 05:37:21;;;;;;;3.57;2.33;;;3.70;99.90;;;;;;5132919;27;20235;-57
2022/04/05 05:40:06;;;;;;;3.27;2.13;;;3.70;99.90;;;;;;5132550;27;20272;-58
2022/04/05 05:42:55;;;;;;;2.30;2.20;;;3.70;99.90;;;;;;5134237;27;20206;-58
2022/04/05 05:45:40;;;;;;;2.67;2.20;;;3.70;99.90;;;;;;5131919;27;20179;-60
2022/04/05 05:48:24;;;;;;;2.07;1.97;;;3.70;99.90;;;;;;5133509;27;20183;-60
2022/04/05 05:51:09;;;;;;;2.20;1.90;;;3.80;99.90;;;;;;5136418;27;20262;-58
2022/04/05 05:53:53;;;;;;;2.73;2.53;;;3.80;99.90;;;;;;5136255;27;20186;-58
2022/04/05 05:56:38;;;;;;;3.20;2.17;;;3.80;99.90;;;;;;5133583;27;20194;-60
2022/04/05 05:59:23;;;;;;;3.07;2.10;;;3.80;99.90;;;;;;5133904;27;20194;-59
2022/04/05 06:02:07;;;;;;;1.67;1.67;;;3.90;99.90;;;;;;5133824;27;20257;-60
2022/04/05 06:04:51;;;;;;;1.80;1.27;;;3.80;99.90;;;;;;5134393;27;20207;-58
2022/04/05 06:07:36;;;;;;;1.30;1.30;;;3.90;99.90;;;;;;5134250;27;20244;-59
2022/04/05 06:10:21;;;;;;;4.07;2.70;;;3.90;99.90;;;;;;5132334;27;20188;-60
2022/04/05 06:13:05;;;;;;;2.90;1.90;;;3.90;99.90;;;;;;5130304;27;20190;-56
2022/04/05 06:15:49;;;;;;;2.53;2.40;;;3.90;99.90;;;;;;5134685;27;20237;-59
2022/04/05 06:18:34;;;;;;;4.70;1.93;;;3.90;99.90;;;;;;5136828;27;20233;-59
2022/04/05 06:21:21;;;;;;;3.00;1.73;;;3.90;99.90;;;;;;5130297;27;20199;-57
2022/04/05 06:24:06;;;;;;;2.43;2.17;;;3.90;99.90;;;;;;5131301;27;20192;-59
2022/04/05 06:26:50;;;;;;;3.23;2.27;;;4.00;99.90;;;;;;5136141;27;20196;-56
2022/04/05 06:29:35;;;;;;;2.77;2.37;;;4.00;99.90;;;;;;5134434;27;20273;-60
2022/04/05 06:32:19;;;;;;;2.40;2.23;;;4.00;99.90;;;;;;5131053;27;20204;-60
2022/04/05 06:35:05;;;;;;;2.93;2.30;;;4.10;99.90;;;;;;5132575;27;20226;-59
2022/04/05 06:37:51;;;;;;;3.30;2.13;;;4.10;99.90;;;;;;5135378;27;20226;-60
2022/04/05 06:40:36;;;;;;;2.53;1.70;;;4.10;99.90;;;;;;5138980;27;20202;-60
2022/04/05 06:43:24;;;;;;;2.03;1.80;;;4.10;99.90;;;;;;5144567;27;20197;-57
2022/04/05 06:46:08;;;;;;;1.87;1.70;;;4.20;99.90;;;;;;5132346;27;20191;-56
2022/04/05 06:48:53;;;;;;;1.70;1.57;;;4.20;99.90;;;;;;5130233;27;20203;-51
2022/04/05 06:51:37;;;;;;;3.00;2.37;;;4.20;99.90;;;;;;5127915;27;20241;-48
2022/04/05 06:54:23;;;;;;;2.77;2.43;;;4.20;99.90;;;;;;5129575;27;20199;-56
2022/04/05 06:57:07;;;;;;;3.00;2.13;;;4.20;99.90;;;;;;5132254;27;20182;-54
2022/04/05 06:59:51;;;;;;;2.53;2.37;;;4.30;99.90;;;;;;5133700;27;20208;-57
2022/04/05 07:02:35;;;;;;;1.90;1.80;;;4.30;99.90;;;;;;5125890;27;20196;-60
2022/04/05 07:05:20;;;;;;;3.50;2.97;;;4.30;99.90;;;;;;5132556;27;20199;-52
2022/04/05 07:08:05;;;;;;;2.77;2.30;;;4.30;99.90;;;;;;5124772;27;20193;-64
2022/04/05 07:10:50;;;;;;;2.10;1.73;;;4.40;99.90;;;;;;5148553;27;20250;-54
2022/04/05 07:13:35;;;;;;;2.43;2.03;;;4.40;99.90;;;;;;5127124;27;20191;-54
2022/04/05 07:16:20;;;;;;;1.90;1.80;;;4.40;99.90;;;;;;5120070;27;20195;-53
2022/04/05 07:19:03;;;;;;;3.50;2.43;;;4.50;99.90;;;;;;5128478;27;20218;-58
2022/04/05 07:21:51;;;;;;;5.13;2.00;;;4.50;99.90;;;;;;5127521;27;20199;-50
2022/04/05 07:24:35;;;;;;;2.23;1.90;;;4.50;99.90;;;;;;5129366;27;20249;-51
2022/04/05 07:27:21;;;;;;;3.53;2.07;;;4.60;99.90;;;;;;5134109;27;20199;-52
2022/04/05 07:30:07;;;;;;;4.17;2.20;;;4.50;99.90;;;;;;5131727;27;20191;-59
2022/04/05 07:32:51;;;;;;;2.43;2.10;;;4.60;99.90;;;;;;5129780;27;20191;-56
2022/04/05 07:35:36;;;;;;;2.13;2.03;;;4.60;99.90;;;;;;5134318;27;20198;-49
2022/04/05 07:38:23;;;;;;;1.93;1.83;;;4.80;99.90;;;;;;5119547;27;20240;-59
2022/04/05 07:41:07;;;;;;;3.37;2.60;;;4.90;99.90;;;;;;5119232;27;20282;-51
2022/04/05 07:43:53;;;;;;;2.83;2.63;;;5.00;99.90;;;;;;5129758;27;20212;-53
2022/04/05 07:46:37;;;;;;;3.60;2.33;;;5.00;99.90;;;;;;5129126;27;20194;-46
2022/04/05 07:49:23;;;;;;;2.17;2.03;;;5.00;99.90;;;;;;5146753;27;20274;-52
2022/04/05 07:52:08;;;;;;;3.13;2.00;;;5.00;99.90;;;;;;5127428;27;20207;-49
2022/04/05 07:54:54;;;;;;;3.53;2.20;;;4.90;99.90;;;;;;5131207;27;20191;-50
2022/04/05 07:57:40;;;;;;;3.10;2.40;;;5.00;99.90;;;;;;5125113;27;20241;-45
2022/04/05 08:00:26;;;;;;;2.57;2.30;;;5.00;99.90;;;;;;5125773;27;20194;-46
2022/04/05 08:03:11;;;;;;;3.47;2.70;;;4.90;99.90;;;;;;5128141;27;20195;-46
2022/04/05 08:05:56;;;;;;;2.27;2.10;;;5.00;99.90;;;;;;5130180;27;20210;-57
2022/04/05 08:08:40;;;;;;;4.10;2.27;;;5.00;99.90;;;;;;5121939;27;20203;-43
2022/04/05 08:11:25;;;;;;;2.23;2.03;;;5.00;99.90;;;;;;5124409;27;20226;-50
2022/04/05 08:14:09;;;;;;;2.27;2.10;;;5.00;99.90;;;;;;5122843;27;20209;-45
2022/04/05 08:16:57;;;;;;;2.67;2.17;;;5.10;99.90;;;;;;5129758;27;20241;-55
2022/04/05 08:19:41;;;;;;;2.50;2.30;;;5.00;99.90;;;;;;5123302;27;20241;-46
2022/04/05 08:22:27;;;;;;;2.10;1.90;;;5.10;99.90;;;;;;5127002;27;20229;-52
2022/04/05 08:25:14;;;;;;;2.40;2.20;;;5.10;99.90;;;;;;5123014;27;20238;-45
2022/04/05 08:27:59;;;;;;;2.93;2.10;;;5.20;99.90;;;;;;5122164;27;20199;-53
2022/04/05 08:30:43;;;;;;;1.93;1.80;;;5.20;99.90;;;;;;5122962;27;20222;-51
2022/04/05 08:33:28;;;;;;;3.50;2.40;;;5.30;99.90;;;;;;5131000;27;20221;-55
2022/04/05 08:36:12;;;;;;;3.10;2.07;;;5.40;99.90;;;;;;5131329;27;20341;-54
2022/04/05 08:38:57;;;;;;;4.00;3.63;;;5.40;99.90;;;;;;5124409;27;20215;-51
2022/04/05 08:41:44;;;;;;;2.07;1.87;;;5.40;99.90;;;;;;5124055;27;20226;-61
2022/04/05 08:44:29;;;;;;;3.03;2.77;;;5.40;99.90;;;;;;5130155;27;20217;-44
2022/04/05 08:47:21;;;;;;;1.60;1.60;;;5.30;99.90;;;;;;5121458;27;20238;-56
2022/04/05 08:50:07;;;;;;;2.67;1.73;;;5.40;99.90;;;;;;5130045;27;20188;-59
2022/04/05 08:52:54;;;;;;;2.50;2.20;;;5.50;99.90;;;;;;5127268;27;20191;-43
2022/04/05 08:55:38;;;;;;;1.97;1.77;;;5.60;99.90;;;;;;5124528;27;20221;-47
2022/04/05 08:58:23;;;;;;;2.30;2.20;;;5.50;99.90;;;;;;5124442;27;20237;-47
2022/04/05 09:01:08;;;;;;;2.53;2.33;;;5.60;99.90;;;;;;5126370;27;20206;-64
2022/04/05 09:03:53;;;;;;;2.40;2.27;;;5.60;99.90;;;;;;5124244;27;20199;-53
2022/04/05 09:06:39;;;;;;;2.67;2.20;;;5.70;99.90;;;;;;5129934;27;20199;-46
2022/04/05 09:09:28;;;;;;;2.77;2.57;;;5.60;99.90;;;;;;5126274;27;20194;-54
2022/04/05 09:12:17;;;;;;;2.70;2.50;;;5.80;99.90;;;;;;5126676;27;20236;-57
2022/04/05 09:15:07;;;;;;;2.93;2.73;;;5.70;99.90;;;;;;5112693;27;20282;-57
2022/04/05 09:17:52;;;;;;;2.63;1.93;;;5.90;99.90;;;;;;5130789;27;20284;-43
2022/04/05 09:20:48;;;;;;;2.50;2.30;;;5.90;99.90;;;;;;5122652;27;20208;-47
2022/04/05 09:23:38;;;;;;;2.20;2.00;;;5.80;99.90;;;;;;5124848;27;20248;-42
2022/04/05 09:26:24;;;;;;;1.90;1.80;;;5.70;99.90;;;;;;5115675;27;20227;-59
2022/04/05 09:29:10;;;;;;;1.80;1.70;;;5.90;99.90;;;;;;5113136;27;20271;-44
2022/04/05 09:31:55;;;;;;;1.87;1.77;;;5.90;99.90;;;;;;5127356;27;20203;-55
2022/04/05 09:34:58;;;;;;;2.77;2.13;;;6.00;99.90;;;;;;5127074;27;20195;-49
2022/04/05 09:37:42;;;;;;;1.73;1.63;;;6.10;99.90;;;;;;5124328;27;20245;-48
2022/04/05 09:40:32;;;;;;;1.90;1.80;;;6.20;99.90;;;;;;5131162;27;20218;-57
2022/04/05 09:43:16;;;;;;;2.20;2.07;;;6.20;99.90;;;;;;5119342;27;20342;-49
2022/04/05 09:46:02;;;;;;;2.67;2.37;;;6.30;99.90;;;;;;5120332;27;20247;-57
2022/04/05 09:48:46;;;;;;;2.23;2.13;;;6.10;99.90;;;;;;5124210;27;20199;-52
2022/04/05 09:51:35;;;;;;;2.20;2.10;;;6.20;99.90;;;;;;5120388;27;20198;-54
2022/04/05 09:54:30;;;;;;;1.80;1.70;;;6.10;99.90;;;;;;5132082;27;20192;-61
2022/04/05 09:57:14;;;;;;;3.60;2.10;;;6.10;99.90;;;;;;5128395;27;20292;-64
2022/04/05 10:00:11;;;;;;;2.13;1.80;;;6.20;99.90;;;;;;5115325;27;20211;-58
2022/04/05 10:03:03;;;;;;;4.77;2.20;;;6.30;99.90;;;;;;5127603;27;20221;-60
2022/04/05 10:05:53;;;;;;;2.00;1.90;;;6.30;99.90;;;;;;5124373;27;20299;-61
2022/04/05 10:08:39;;;;;;;2.20;2.00;;;6.50;99.90;;;;;;5105136;27;20235;-59
2022/04/05 10:11:26;;;;;;;2.10;2.00;;;6.50;99.90;;;;;;5133227;27;20191;-57
2022/04/05 10:14:14;;;;;;;3.00;2.70;;;6.50;99.90;;;;;;5124006;27;20319;-63
2022/04/05 10:16:59;;;;;;;2.10;2.00;;;6.70;99.90;;;;;;5123301;27;20310;-51
2022/04/05 10:19:48;;;;;;;1.80;1.70;;;6.70;99.90;;;;;;5123255;27;20293;-56
2022/04/05 10:22:32;;;;;;;3.10;2.07;;;6.80;99.90;;;;;;5123810;27;20195;-62
2022/04/05 10:25:16;;;;;;;2.40;2.20;;;6.70;99.90;;;;;;5124550;27;20240;-42
2022/04/05 10:28:02;;;;;;;1.67;1.57;;;6.70;99.90;;;;;;5125644;27;20199;-58
2022/04/05 10:31:17;;;;;;;1.50;1.50;;;6.50;99.90;;;;;;5124192;27;20207;-54
2022/04/05 10:34:14;;;;;;;2.23;1.77;;;6.60;99.90;;;;;;5123940;27;20324;-47
2022/04/05 10:37:30;;;;;;;2.47;1.90;;;6.70;99.90;;;;;;5125601;27;20222;-47
2022/04/05 10:40:19;;;;;;;1.73;1.63;;;6.80;99.90;;;;;;5125207;27;20195;-65
2022/04/05 10:43:19;;;;;;;1.77;1.67;;;6.70;99.90;;;;;;5123599;27;20249;-55
2022/04/05 10:46:04;;;;;;;2.10;2.00;;;6.90;99.90;;;;;;5126396;27;20654;-63
2022/04/05 10:48:56;;;;;;;2.57;2.27;;;6.90;99.90;;;;;;5125260;27;20241;-53
2022/04/05 10:52:17;;;;;;;3.50;2.10;;;6.90;99.90;;;;;;5123276;27;20184;-45
2022/04/05 10:55:11;;;;;;;1.47;1.47;;;6.70;99.90;;;;;;5125109;27;20219;-53
2022/04/05 10:58:08;;;;;;;2.17;2.03;;;6.80;99.90;;;;;;5125123;27;20300;-48
2022/04/05 11:01:23;;;;;;;2.33;2.13;;;6.90;99.90;;;;;;5123277;27;20196;-44
2022/04/05 11:04:16;;;;;;;1.67;1.57;;;7.00;99.90;;;;;;5123869;27;20195;-48
2022/04/05 11:07:10;;;;;;;1.93;1.83;;;6.80;99.90;;;;;;5124641;27;20195;-51
2022/04/05 11:09:57;;;;;;;3.27;2.23;;;7.00;99.90;;;;;;5123924;27;20256;-48
2022/04/05 11:12:43;;;;;;;2.43;2.27;;;7.00;99.90;;;;;;5123770;27;20190;-45
2022/04/05 11:15:56;;;;;;;2.63;2.13;;;6.90;99.90;;;;;;5125560;27;20202;-49
2022/04/05 11:18:44;;;;;;;1.77;1.47;;;6.90;99.90;;;;;;5123788;27;20222;-53
2022/04/05 11:21:28;;;;;;;1.80;1.70;;;7.00;99.90;;;;;;5123757;27;20203;-49
2022/04/05 11:24:12;;;;;;;2.40;2.00;;;7.10;99.90;;;;;;5124851;27;20199;-49
2022/04/05 11:27:26;;;;;;;5.70;2.47;;;7.10;99.90;;;;;;5123277;27;20271;-56
2022/04/05 11:30:28;;;;;;;2.97;2.10;;;7.10;99.90;;;;;;5123528;27;20249;-60
2022/04/05 11:33:33;;;;;;;2.47;2.07;;;7.30;99.90;;;;;;5124892;27;20206;-64
2022/04/05 11:36:21;;;;;;;2.40;2.20;;;7.40;99.90;;;;;;5124014;27;20219;-53
2022/04/05 11:39:12;;;;;;;2.63;2.37;;;7.50;99.90;;;;;;5122181;27;20254;-55
2022/04/05 11:41:58;;;;;;;3.27;2.33;;;7.70;99.90;;;;;;5124035;27;20340;-56
2022/04/05 11:44:50;;;;;;;2.83;2.63;;;7.80;99.90;;;;;;5124425;27;20191;-65
2022/04/05 11:47:34;;;;;;;2.57;2.37;;;8.00;99.90;;;;;;5122539;27;20269;-57
2022/04/05 11:50:20;;;;;;;2.00;1.90;;;8.10;99.90;;;;;;5124735;27;20187;-47
2022/04/05 11:53:18;;;;;;;2.07;1.97;;;8.50;99.90;;;;;;5123225;27;20191;-66
2022/04/05 11:56:17;;;;;;;1.90;1.80;;;8.50;99.90;;;;;;5123247;28;20190;-53
2022/04/05 11:59:05;;;;;;;6.70;1.87;;;8.40;99.90;;;;;;5124326;28;20227;-47
2022/04/05 12:01:50;;;;;;;2.93;2.20;;;8.40;99.90;;;;;;5123875;28;20187;-50
2022/04/05 12:04:35;;;;;;;1.60;1.50;;;8.20;99.90;;;;;;5124217;28;20199;-45
2022/04/05 12:07:19;;;;;;;3.87;1.70;;;8.40;99.90;;;;;;5125679;27;20195;-49
2022/04/05 12:10:04;;;;;;;1.73;1.63;;;8.70;99.90;;;;;;5126839;27;20183;-46
2022/04/05 12:12:49;;;;;;;1.57;1.53;;;8.90;99.90;;;;;;5124413;27;20211;-62
2022/04/05 12:15:35;;;;;;;1.80;1.70;;;9.00;99.90;;;;;;5149081;27;20235;-57
2022/04/05 12:18:26;;;;;;;1.70;1.60;;;8.70;99.90;;;;;;5139689;27;20395;-61
2022/04/05 12:21:10;;;;;;;1.43;1.40;;;9.00;99.90;;;;;;5149375;27;20191;-60
2022/04/05 12:23:56;;;;;;;2.37;2.17;;;8.80;99.90;;;;;;5124581;27;20260;-48
2022/04/05 12:26:40;;;;;;;1.80;1.70;;;8.90;99.90;;;;;;5119507;27;20202;-47
2022/04/05 12:29:27;;;;;;;2.83;1.40;;;8.90;99.90;;;;;;5129344;27;20203;-50
2022/04/05 12:32:14;;;;;;;1.97;1.87;;;8.90;99.90;;;;;;5120760;27;20312;-49
2022/04/05 12:35:00;;;;;;;1.93;1.83;;;8.70;99.90;;;;;;5126438;27;20188;-54
2022/04/05 12:37:46;;;;;;;2.17;2.07;;;8.60;99.90;;;;;;5124075;27;20279;-44
2022/04/05 12:40:39;;;;;;;2.10;1.40;;;8.90;99.90;;;;;;5126352;27;20198;-43
2022/04/05 12:43:24;;;;;;;1.67;1.57;;;8.60;99.90;;;;;;5127486;27;20211;-48
2022/04/05 12:46:14;;;;;;;1.50;1.47;;;8.50;99.90;;;;;;5131863;27;20233;-54
2022/04/05 12:49:13;;;;;;;1.50;1.50;;;8.40;99.90;;;;;;5114850;27;20199;-45
2022/04/05 12:52:13;;;;;;;2.37;2.27;;;8.30;99.90;;;;;;5136407;27;20212;-45
2022/04/05 12:54:59;;;;;;;1.93;1.83;;;8.50;99.90;;;;;;5130207;27;20240;-46
2022/04/05 12:57:48;;;;;;;1.80;1.70;;;8.40;99.90;;;;;;5124399;27;20250;-49
2022/04/05 13:00:43;;;;;;;1.13;1.13;;;8.30;99.90;;;;;;5138974;27;20245;-59
2022/04/05 13:03:34;;;;;;;1.80;1.70;;;8.30;99.90;;;;;;5130979;27;20245;-49
2022/04/05 13:06:27;;;;;;;2.30;2.10;;;8.20;99.90;;;;;;5124336;27;20202;-60
2022/04/05 13:09:15;;;;;;;1.20;1.20;;;8.20;99.90;;;;;;5125089;27;20207;-58
2022/04/05 13:12:17;;;;;;;3.20;1.57;;;8.20;99.90;;;;;;5120742;27;20231;-57
2022/04/05 13:15:11;;;;;;;1.90;1.80;;;8.20;99.90;;;;;;5121509;27;20198;-57
2022/04/05 13:18:05;;;;;;;1.50;1.40;;;8.00;99.90;;;;;;5114216;27;20223;-62
2022/04/05 13:20:59;;;;;;;1.57;1.47;;;8.00;99.90;;;;;;5133666;27;20200;-46
2022/04/05 13:24:05;;;;;;;2.37;2.00;;;8.10;99.90;;;;;;5117947;27;20210;-59
2022/04/05 13:26:53;;;;;;;3.00;2.67;;;8.30;99.90;;;;;;5116504;27;20207;-56
2022/04/05 13:29:42;;;;;;;2.17;2.07;;;8.30;99.90;;;;;;5126540;27;20195;-60
2022/04/05 13:32:27;;;;;;;2.77;2.57;;;8.30;99.90;;;;;;5135984;27;20272;-52
2022/04/05 13:35:11;;;;;;;2.93;2.60;;;8.50;99.90;;;;;;5138250;27;20291;-64
2022/04/05 13:37:56;;;;;;;4.20;2.27;;;8.40;99.90;;;;;;5129956;27;20229;-57
2022/04/05 13:40:41;;;;;;;2.50;2.30;;;8.40;99.90;;;;;;5122100;27;20301;-52
2022/04/05 13:43:25;;;;;;;2.87;2.40;;;8.20;99.90;;;;;;5125024;27;20195;-46
2022/04/05 13:46:10;;;;;;;3.27;2.70;;;8.20;99.90;;;;;;5130837;27;20210;-60
2022/04/05 13:48:55;;;;;;;2.30;1.90;;;8.10;99.90;;;;;;5120613;27;20191;-59
2022/04/05 13:51:40;;;;;;;2.30;2.10;;;8.10;99.90;;;;;;5135362;27;20252;-48
2022/04/05 13:54:25;;;;;;;2.93;2.40;;;8.00;99.90;;;;;;5122817;27;20252;-52
2022/04/05 13:57:11;;;;;;;1.93;1.80;;;8.00;99.90;;;;;;5135042;27;20199;-51
2022/04/05 13:59:56;;;;;;;2.60;2.27;;;7.90;99.90;;;;;;5129951;27;20263;-62
2022/04/05 14:02:41;;;;;;;2.60;2.40;;;7.90;99.90;;;;;;5138880;27;20245;-50
2022/04/05 14:05:30;;;;;;;2.17;1.93;;;8.00;99.90;;;;;;5119728;27;20213;-47
2022/04/05 14:08:14;;;;;;;2.40;2.30;;;8.00;99.90;;;;;;5113878;27;20200;-43
2022/04/05 14:11:03;;;;;;;2.53;2.40;;;8.00;99.90;;;;;;5113743;27;20268;-52
2022/04/05 14:13:48;;;;;;;5.47;2.90;;;8.00;99.90;;;;;;5130034;27;20201;-50
2022/04/05 14:16:33;;;;;;;3.03;2.87;;;8.10;99.90;;;;;;5110628;27;20249;-62
2022/04/05 14:19:17;;;;;;;2.30;2.10;;;8.20;99.90;;;;;;5111854;27;20241;-55
2022/04/05 14:22:02;;;;;;;2.47;2.27;;;8.20;99.90;;;;;;5132876;27;20207;-49
2022/04/05 14:24:47;;;;;;;2.60;2.37;;;8.30;99.90;;;;;;5119270;27;20201;-45
2022/04/05 14:27:31;;;;;;;3.20;2.17;;;8.50;99.90;;;;;;5135950;27;20214;-46
2022/04/05 14:30:15;;;;;;;2.67;2.47;;;8.50;99.90;;;;;;5125012;27;20199;-66
2022/04/05 14:33:01;;;;;;;2.13;2.03;;;8.50;99.90;;;;;;5136815;27;20195;-61
2022/04/05 14:35:45;;;;;;;2.07;1.87;;;8.50;99.90;;;;;;5111317;27;20188;-56
2022/04/05 14:38:30;;;;;;;2.60;2.37;;;8.50;99.90;;;;;;5109143;27;20227;-62
2022/04/05 14:41:14;;;;;;;1.80;1.70;;;8.60;99.90;;;;;;5123496;27;20223;-41
2022/04/05 14:44:00;;;;;;;1.83;1.70;;;8.80;99.90;;;;;;5121256;27;20297;-57